sensor_id;sensor_type;location;lat;lon;timestamp;P1;durP1;ratioP1;P2;durP2;ratioP2
20154;SDS011;10238;49.556;10.956;2023-05-09T00:02:07;6.18;;;5.68;;
20154;SDS011;10238;49.556;10.956;2023-05-09T00:04:56;6.75;;;6.25;;
20154;SDS011;10238;49.556;10.956;2023-05-09T00:07:45;5.85;;;5.35;;
20154;SDS011;10238;49.556;10.956;2023-05-09T00:10:33;6.68;;;6.10;;
20154;SDS011;10238;49.556;10.956;2023-05-09T00:13:21;5.65;;;5.22;;
20154;SDS011;10238;49.556;10.956;2023-05-09T00:16:10;7.38;;;6.68;;
20154;SDS011;10238;49.556;10.956;2023-05-09T00:18:58;6.18;;;5.78;;
20154;SDS011;10238;49.556;10.956;2023-05-09T00:21:46;7.22;;;6.72;;
20154;SDS011;10238;49.556;10.956;2023-05-09T00:24:36;7.32;;;6.53;;
20154;SDS011;10238;49.556;10.956;2023-05-09T00:27:24;6.57;;;6.07;;
20154;SDS011;10238;49.556;10.956;2023-05-09T00:30:14;6.88;;;6.18;;
20154;SDS011;10238;49.556;10.956;2023-05-09T00:33:02;5.90;;;5.40;;
20154;SDS011;10238;49.556;10.956;2023-05-09T00:35:50;6.38;;;5.88;;
20154;SDS011;10238;49.556;10.956;2023-05-09T00:38:38;6.25;;;5.75;;
20154;SDS011;10238;49.556;10.956;2023-05-09T00:41:28;6.32;;;5.72;;
20154;SDS011;10238;49.556;10.956;2023-05-09T00:44:15;6.05;;;5.00;;
20154;SDS011;10238;49.556;10.956;2023-05-09T00:47:03;5.75;;;5.35;;
20154;SDS011;10238;49.556;10.956;2023-05-09T00:49:52;5.75;;;5.07;;
20154;SDS011;10238;49.556;10.956;2023-05-09T00:52:41;6.25;;;5.65;;
20154;SDS011;10238;49.556;10.956;2023-05-09T00:55:29;6.30;;;5.30;;
20154;SDS011;10238;49.556;10.956;2023-05-09T00:58:18;5.47;;;4.90;;
20154;SDS011;10238;49.556;10.956;2023-05-09T01:01:06;5.47;;;4.97;;
20154;SDS011;10238;49.556;10.956;2023-05-09T01:03:54;5.20;;;4.80;;
20154;SDS011;10238;49.556;10.956;2023-05-09T01:06:44;6.50;;;5.90;;
20154;SDS011;10238;49.556;10.956;2023-05-09T01:09:40;7.00;;;5.43;;
20154;SDS011;10238;49.556;10.956;2023-05-09T01:12:38;7.28;;;5.30;;
20154;SDS011;10238;49.556;10.956;2023-05-09T01:18:24;6.50;;;5.90;;
20154;SDS011;10238;49.556;10.956;2023-05-09T01:21:19;6.72;;;6.13;;
20154;SDS011;10238;49.556;10.956;2023-05-09T01:24:24;6.60;;;6.10;;
20154;SDS011;10238;49.556;10.956;2023-05-09T01:27:36;7.55;;;6.95;;
20154;SDS011;10238;49.556;10.956;2023-05-09T01:30:35;6.95;;;6.40;;
20154;SDS011;10238;49.556;10.956;2023-05-09T01:33:26;7.43;;;6.82;;
20154;SDS011;10238;49.556;10.956;2023-05-09T01:36:17;7.40;;;6.80;;
20154;SDS011;10238;49.556;10.956;2023-05-09T01:39:06;6.32;;;5.82;;
20154;SDS011;10238;49.556;10.956;2023-05-09T01:41:59;5.00;;;4.57;;
20154;SDS011;10238;49.556;10.956;2023-05-09T01:44:50;5.95;;;5.45;;
20154;SDS011;10238;49.556;10.956;2023-05-09T01:47:41;8.30;;;5.85;;
20154;SDS011;10238;49.556;10.956;2023-05-09T01:50:30;6.15;;;5.65;;
20154;SDS011;10238;49.556;10.956;2023-05-09T01:53:19;5.97;;;5.40;;
20154;SDS011;10238;49.556;10.956;2023-05-09T01:56:08;6.40;;;5.70;;
20154;SDS011;10238;49.556;10.956;2023-05-09T01:58:58;6.30;;;5.80;;
20154;SDS011;10238;49.556;10.956;2023-05-09T02:01:48;7.15;;;6.55;;
20154;SDS011;10238;49.556;10.956;2023-05-09T02:04:39;5.68;;;5.18;;
20154;SDS011;10238;49.556;10.956;2023-05-09T02:07:28;7.00;;;5.63;;
20154;SDS011;10238;49.556;10.956;2023-05-09T02:10:17;5.97;;;5.38;;
20154;SDS011;10238;49.556;10.956;2023-05-09T02:13:06;6.20;;;5.70;;
20154;SDS011;10238;49.556;10.956;2023-05-09T02:15:54;7.35;;;6.00;;
20154;SDS011;10238;49.556;10.956;2023-05-09T02:18:43;5.93;;;5.32;;
20154;SDS011;10238;49.556;10.956;2023-05-09T02:21:33;5.97;;;5.43;;
20154;SDS011;10238;49.556;10.956;2023-05-09T02:24:21;6.50;;;5.65;;
20154;SDS011;10238;49.556;10.956;2023-05-09T02:27:09;6.15;;;5.55;;
20154;SDS011;10238;49.556;10.956;2023-05-09T02:29:58;5.53;;;4.80;;
20154;SDS011;10238;49.556;10.956;2023-05-09T02:32:52;5.93;;;5.32;;
20154;SDS011;10238;49.556;10.956;2023-05-09T02:35:43;5.65;;;5.15;;
20154;SDS011;10238;49.556;10.956;2023-05-09T02:38:33;6.10;;;5.50;;
20154;SDS011;10238;49.556;10.956;2023-05-09T02:41:21;5.25;;;4.75;;
20154;SDS011;10238;49.556;10.956;2023-05-09T02:44:12;5.53;;;4.75;;
20154;SDS011;10238;49.556;10.956;2023-05-09T02:47:00;5.53;;;5.03;;
20154;SDS011;10238;49.556;10.956;2023-05-09T02:49:48;7.68;;;6.07;;
20154;SDS011;10238;49.556;10.956;2023-05-09T02:52:36;5.30;;;4.80;;
20154;SDS011;10238;49.556;10.956;2023-05-09T02:55:26;7.45;;;5.88;;
20154;SDS011;10238;49.556;10.956;2023-05-09T02:58:14;6.05;;;5.45;;
20154;SDS011;10238;49.556;10.956;2023-05-09T03:01:02;5.93;;;5.35;;
20154;SDS011;10238;49.556;10.956;2023-05-09T03:03:50;5.68;;;5.10;;
20154;SDS011;10238;49.556;10.956;2023-05-09T03:06:38;5.88;;;5.20;;
20154;SDS011;10238;49.556;10.956;2023-05-09T03:09:28;6.05;;;5.07;;
20154;SDS011;10238;49.556;10.956;2023-05-09T03:12:18;5.68;;;5.18;;
20154;SDS011;10238;49.556;10.956;2023-05-09T03:15:06;6.70;;;5.82;;
20154;SDS011;10238;49.556;10.956;2023-05-09T03:17:54;5.72;;;5.22;;
20154;SDS011;10238;49.556;10.956;2023-05-09T03:20:42;6.07;;;5.55;;
20154;SDS011;10238;49.556;10.956;2023-05-09T03:23:30;6.50;;;5.93;;
20154;SDS011;10238;49.556;10.956;2023-05-09T03:26:18;7.35;;;5.93;;
20154;SDS011;10238;49.556;10.956;2023-05-09T03:29:08;7.43;;;6.68;;
20154;SDS011;10238;49.556;10.956;2023-05-09T03:31:55;6.55;;;6.05;;
20154;SDS011;10238;49.556;10.956;2023-05-09T03:34:43;7.15;;;6.55;;
20154;SDS011;10238;49.556;10.956;2023-05-09T03:37:31;7.13;;;6.53;;
20154;SDS011;10238;49.556;10.956;2023-05-09T03:40:19;6.97;;;6.38;;
20154;SDS011;10238;49.556;10.956;2023-05-09T03:43:07;8.75;;;7.15;;
20154;SDS011;10238;49.556;10.956;2023-05-09T03:45:57;6.32;;;5.82;;
20154;SDS011;10238;49.556;10.956;2023-05-09T03:48:45;9.55;;;8.65;;
20154;SDS011;10238;49.556;10.956;2023-05-09T03:51:33;7.13;;;6.43;;
20154;SDS011;10238;49.556;10.956;2023-05-09T03:54:21;6.57;;;6.00;;
20154;SDS011;10238;49.556;10.956;2023-05-09T03:57:11;6.85;;;5.93;;
20154;SDS011;10238;49.556;10.956;2023-05-09T04:00:00;7.15;;;6.50;;
20154;SDS011;10238;49.556;10.956;2023-05-09T04:02:50;8.63;;;7.75;;
20154;SDS011;10238;49.556;10.956;2023-05-09T04:05:39;6.25;;;5.65;;
20154;SDS011;10238;49.556;10.956;2023-05-09T04:08:27;6.93;;;6.25;;
20154;SDS011;10238;49.556;10.956;2023-05-09T04:11:14;7.35;;;6.65;;
20154;SDS011;10238;49.556;10.956;2023-05-09T04:14:03;9.30;;;7.25;;
20154;SDS011;10238;49.556;10.956;2023-05-09T04:16:51;11.63;;;10.63;;
20154;SDS011;10238;49.556;10.956;2023-05-09T04:19:41;6.95;;;6.05;;
20154;SDS011;10238;49.556;10.956;2023-05-09T04:22:29;6.78;;;6.15;;
20154;SDS011;10238;49.556;10.956;2023-05-09T04:25:17;7.18;;;6.57;;
20154;SDS011;10238;49.556;10.956;2023-05-09T04:28:05;19.20;;;17.42;;
20154;SDS011;10238;49.556;10.956;2023-05-09T04:30:53;9.75;;;8.95;;
20154;SDS011;10238;49.556;10.956;2023-05-09T04:33:41;7.82;;;7.18;;
20154;SDS011;10238;49.556;10.956;2023-05-09T04:36:30;8.75;;;8.05;;
20154;SDS011;10238;49.556;10.956;2023-05-09T04:39:18;15.18;;;14.18;;
20154;SDS011;10238;49.556;10.956;2023-05-09T04:42:06;8.93;;;8.32;;
20154;SDS011;10238;49.556;10.956;2023-05-09T04:44:54;18.08;;;16.98;;
20154;SDS011;10238;49.556;10.956;2023-05-09T04:47:42;19.17;;;18.00;;
20154;SDS011;10238;49.556;10.956;2023-05-09T04:50:30;13.07;;;12.07;;
20154;SDS011;10238;49.556;10.956;2023-05-09T04:53:19;15.80;;;14.80;;
20154;SDS011;10238;49.556;10.956;2023-05-09T04:56:07;20.17;;;18.98;;
20154;SDS011;10238;49.556;10.956;2023-05-09T04:58:55;16.17;;;14.95;;
20154;SDS011;10238;49.556;10.956;2023-05-09T05:01:43;22.13;;;20.77;;
20154;SDS011;10238;49.556;10.956;2023-05-09T05:04:31;21.60;;;20.13;;
20154;SDS011;10238;49.556;10.956;2023-05-09T05:07:19;17.08;;;15.98;;
20154;SDS011;10238;49.556;10.956;2023-05-09T05:10:09;15.52;;;14.43;;
20154;SDS011;10238;49.556;10.956;2023-05-09T05:12:57;11.82;;;10.82;;
20154;SDS011;10238;49.556;10.956;2023-05-09T05:15:45;15.45;;;14.40;;
20154;SDS011;10238;49.556;10.956;2023-05-09T05:18:34;14.27;;;13.27;;
20154;SDS011;10238;49.556;10.956;2023-05-09T05:21:22;8.90;;;7.78;;
20154;SDS011;10238;49.556;10.956;2023-05-09T05:24:10;12.23;;;11.05;;
20154;SDS011;10238;49.556;10.956;2023-05-09T05:26:59;9.38;;;8.35;;
20154;SDS011;10238;49.556;10.956;2023-05-09T05:29:47;10.82;;;9.75;;
20154;SDS011;10238;49.556;10.956;2023-05-09T05:32:35;12.40;;;11.40;;
20154;SDS011;10238;49.556;10.956;2023-05-09T05:35:24;9.80;;;8.75;;
20154;SDS011;10238;49.556;10.956;2023-05-09T05:38:13;10.38;;;9.52;;
20154;SDS011;10238;49.556;10.956;2023-05-09T05:41:01;9.95;;;8.98;;
20154;SDS011;10238;49.556;10.956;2023-05-09T05:43:50;10.82;;;9.73;;
20154;SDS011;10238;49.556;10.956;2023-05-09T05:46:39;10.43;;;9.45;;
20154;SDS011;10238;49.556;10.956;2023-05-09T05:49:27;12.27;;;11.07;;
20154;SDS011;10238;49.556;10.956;2023-05-09T05:52:15;13.55;;;12.45;;
20154;SDS011;10238;49.556;10.956;2023-05-09T05:55:03;16.00;;;14.77;;
20154;SDS011;10238;49.556;10.956;2023-05-09T05:57:51;17.48;;;15.98;;
20154;SDS011;10238;49.556;10.956;2023-05-09T06:00:41;11.18;;;9.38;;
20154;SDS011;10238;49.556;10.956;2023-05-09T06:03:29;11.00;;;10.10;;
20154;SDS011;10238;49.556;10.956;2023-05-09T06:06:19;11.52;;;9.63;;
20154;SDS011;10238;49.556;10.956;2023-05-09T06:09:07;10.27;;;8.38;;
20154;SDS011;10238;49.556;10.956;2023-05-09T06:11:55;10.07;;;7.60;;
20154;SDS011;10238;49.556;10.956;2023-05-09T06:14:43;10.98;;;8.77;;
20154;SDS011;10238;49.556;10.956;2023-05-09T06:17:33;8.10;;;7.30;;
20154;SDS011;10238;49.556;10.956;2023-05-09T06:20:20;9.43;;;8.32;;
20154;SDS011;10238;49.556;10.956;2023-05-09T06:23:08;10.35;;;7.40;;
20154;SDS011;10238;49.556;10.956;2023-05-09T06:25:56;7.65;;;6.85;;
20154;SDS011;10238;49.556;10.956;2023-05-09T06:28:44;9.13;;;6.93;;
20154;SDS011;10238;49.556;10.956;2023-05-09T06:31:33;7.57;;;6.63;;
20154;SDS011;10238;49.556;10.956;2023-05-09T06:34:25;7.55;;;6.18;;
20154;SDS011;10238;49.556;10.956;2023-05-09T06:37:12;7.05;;;6.35;;
20154;SDS011;10238;49.556;10.956;2023-05-09T06:40:00;9.30;;;5.80;;
20154;SDS011;10238;49.556;10.956;2023-05-09T06:42:49;8.85;;;7.10;;
20154;SDS011;10238;49.556;10.956;2023-05-09T06:45:37;6.72;;;5.70;;
20154;SDS011;10238;49.556;10.956;2023-05-09T06:48:25;8.20;;;5.40;;
20154;SDS011;10238;49.556;10.956;2023-05-09T06:51:14;7.63;;;6.80;;
20154;SDS011;10238;49.556;10.956;2023-05-09T06:54:02;8.82;;;7.38;;
20154;SDS011;10238;49.556;10.956;2023-05-09T06:56:53;10.55;;;6.22;;
20154;SDS011;10238;49.556;10.956;2023-05-09T06:59:41;10.93;;;7.20;;
20154;SDS011;10238;49.556;10.956;2023-05-09T07:02:29;7.97;;;6.15;;
20154;SDS011;10238;49.556;10.956;2023-05-09T07:05:17;10.77;;;6.68;;
20154;SDS011;10238;49.556;10.956;2023-05-09T07:08:06;5.72;;;5.13;;
20154;SDS011;10238;49.556;10.956;2023-05-09T07:10:54;8.02;;;6.30;;
20154;SDS011;10238;49.556;10.956;2023-05-09T07:13:42;9.05;;;6.55;;
20154;SDS011;10238;49.556;10.956;2023-05-09T07:16:30;7.20;;;5.15;;
20154;SDS011;10238;49.556;10.956;2023-05-09T07:19:21;7.82;;;7.10;;
20154;SDS011;10238;49.556;10.956;2023-05-09T07:22:09;6.97;;;5.32;;
20154;SDS011;10238;49.556;10.956;2023-05-09T07:24:59;9.48;;;8.32;;
20154;SDS011;10238;49.556;10.956;2023-05-09T07:27:48;6.88;;;6.18;;
20154;SDS011;10238;49.556;10.956;2023-05-09T07:30:36;8.38;;;7.57;;
20154;SDS011;10238;49.556;10.956;2023-05-09T07:33:23;7.90;;;5.93;;
20154;SDS011;10238;49.556;10.956;2023-05-09T07:36:11;6.93;;;5.70;;
20154;SDS011;10238;49.556;10.956;2023-05-09T07:39:01;5.93;;;5.32;;
20154;SDS011;10238;49.556;10.956;2023-05-09T07:41:51;6.13;;;5.13;;
20154;SDS011;10238;49.556;10.956;2023-05-09T07:44:39;4.50;;;4.10;;
20154;SDS011;10238;49.556;10.956;2023-05-09T07:47:27;5.50;;;4.43;;
20154;SDS011;10238;49.556;10.956;2023-05-09T07:50:15;5.50;;;4.80;;
20154;SDS011;10238;49.556;10.956;2023-05-09T07:53:03;4.50;;;4.10;;
20154;SDS011;10238;49.556;10.956;2023-05-09T07:55:51;6.82;;;6.32;;
20154;SDS011;10238;49.556;10.956;2023-05-09T07:58:40;5.95;;;5.35;;
20154;SDS011;10238;49.556;10.956;2023-05-09T08:01:28;5.30;;;4.80;;
20154;SDS011;10238;49.556;10.956;2023-05-09T08:04:16;9.63;;;5.03;;
20154;SDS011;10238;49.556;10.956;2023-05-09T08:07:05;6.70;;;6.07;;
20154;SDS011;10238;49.556;10.956;2023-05-09T08:09:53;8.63;;;7.82;;
20154;SDS011;10238;49.556;10.956;2023-05-09T08:12:41;7.97;;;7.22;;
20154;SDS011;10238;49.556;10.956;2023-05-09T08:15:30;6.53;;;5.93;;
20154;SDS011;10238;49.556;10.956;2023-05-09T08:18:18;8.52;;;6.10;;
20154;SDS011;10238;49.556;10.956;2023-05-09T08:21:06;6.30;;;5.70;;
20154;SDS011;10238;49.556;10.956;2023-05-09T08:23:54;6.28;;;5.57;;
20154;SDS011;10238;49.556;10.956;2023-05-09T08:26:42;4.40;;;3.92;;
20154;SDS011;10238;49.556;10.956;2023-05-09T08:29:30;5.53;;;4.53;;
20154;SDS011;10238;49.556;10.956;2023-05-09T08:32:19;6.00;;;5.50;;
20154;SDS011;10238;49.556;10.956;2023-05-09T08:35:07;8.73;;;6.30;;
20154;SDS011;10238;49.556;10.956;2023-05-09T08:37:56;6.18;;;4.40;;
20154;SDS011;10238;49.556;10.956;2023-05-09T08:40:43;7.60;;;6.40;;
20154;SDS011;10238;49.556;10.956;2023-05-09T08:43:32;5.57;;;5.18;;
20154;SDS011;10238;49.556;10.956;2023-05-09T08:46:21;7.15;;;6.55;;
20154;SDS011;10238;49.556;10.956;2023-05-09T08:49:15;7.20;;;6.50;;
20154;SDS011;10238;49.556;10.956;2023-05-09T08:52:04;7.25;;;6.50;;
20154;SDS011;10238;49.556;10.956;2023-05-09T08:54:53;6.93;;;6.25;;
20154;SDS011;10238;49.556;10.956;2023-05-09T08:57:41;7.57;;;6.78;;
20154;SDS011;10238;49.556;10.956;2023-05-09T09:00:30;7.22;;;6.63;;
20154;SDS011;10238;49.556;10.956;2023-05-09T09:03:19;6.15;;;5.10;;
20154;SDS011;10238;49.556;10.956;2023-05-09T09:06:08;5.10;;;4.70;;
20154;SDS011;10238;49.556;10.956;2023-05-09T09:08:56;5.05;;;4.65;;
20154;SDS011;10238;49.556;10.956;2023-05-09T09:11:45;4.55;;;4.00;;
20154;SDS011;10238;49.556;10.956;2023-05-09T09:14:35;3.70;;;3.40;;
20154;SDS011;10238;49.556;10.956;2023-05-09T09:17:28;4.95;;;4.55;;
20154;SDS011;10238;49.556;10.956;2023-05-09T09:20:18;6.20;;;5.60;;
20154;SDS011;10238;49.556;10.956;2023-05-09T09:23:09;5.88;;;4.13;;
20154;SDS011;10238;49.556;10.956;2023-05-09T09:26:01;5.38;;;4.95;;
20154;SDS011;10238;49.556;10.956;2023-05-09T09:28:49;4.53;;;4.13;;
20154;SDS011;10238;49.556;10.956;2023-05-09T09:31:42;4.60;;;4.30;;
20154;SDS011;10238;49.556;10.956;2023-05-09T09:34:32;6.03;;;5.55;;
20154;SDS011;10238;49.556;10.956;2023-05-09T09:37:20;5.18;;;4.68;;
20154;SDS011;10238;49.556;10.956;2023-05-09T09:40:10;5.82;;;5.38;;
20154;SDS011;10238;49.556;10.956;2023-05-09T09:42:59;4.63;;;4.32;;
20154;SDS011;10238;49.556;10.956;2023-05-09T09:45:47;3.88;;;3.22;;
20154;SDS011;10238;49.556;10.956;2023-05-09T09:48:36;3.25;;;3.00;;
20154;SDS011;10238;49.556;10.956;2023-05-09T09:51:25;8.82;;;5.20;;
20154;SDS011;10238;49.556;10.956;2023-05-09T09:54:15;5.07;;;4.70;;
20154;SDS011;10238;49.556;10.956;2023-05-09T09:57:05;3.92;;;3.22;;
20154;SDS011;10238;49.556;10.956;2023-05-09T09:59:56;5.20;;;4.75;;
20154;SDS011;10238;49.556;10.956;2023-05-09T10:02:45;4.20;;;3.47;;
20154;SDS011;10238;49.556;10.956;2023-05-09T10:05:34;3.95;;;3.65;;
20154;SDS011;10238;49.556;10.956;2023-05-09T10:08:23;5.78;;;2.95;;
20154;SDS011;10238;49.556;10.956;2023-05-09T10:11:11;4.03;;;3.45;;
20154;SDS011;10238;49.556;10.956;2023-05-09T10:14:01;3.92;;;3.63;;
20154;SDS011;10238;49.556;10.956;2023-05-09T10:16:50;3.50;;;3.20;;
20154;SDS011;10238;49.556;10.956;2023-05-09T10:19:41;4.45;;;4.15;;
20154;SDS011;10238;49.556;10.956;2023-05-09T10:22:32;4.75;;;3.55;;
20154;SDS011;10238;49.556;10.956;2023-05-09T10:25:25;4.13;;;3.58;;
20154;SDS011;10238;49.556;10.956;2023-05-09T10:28:19;4.60;;;4.20;;
20154;SDS011;10238;49.556;10.956;2023-05-09T10:31:15;6.03;;;4.07;;
20154;SDS011;10238;49.556;10.956;2023-05-09T10:34:09;3.70;;;3.40;;
20154;SDS011;10238;49.556;10.956;2023-05-09T10:36:58;3.78;;;3.15;;
20154;SDS011;10238;49.556;10.956;2023-05-09T10:39:47;4.35;;;3.63;;
20154;SDS011;10238;49.556;10.956;2023-05-09T10:42:38;2.93;;;2.73;;
20154;SDS011;10238;49.556;10.956;2023-05-09T10:45:27;4.25;;;3.85;;
20154;SDS011;10238;49.556;10.956;2023-05-09T10:48:16;4.13;;;3.42;;
20154;SDS011;10238;49.556;10.956;2023-05-09T10:51:04;4.15;;;3.45;;
20154;SDS011;10238;49.556;10.956;2023-05-09T10:53:53;5.45;;;2.92;;
20154;SDS011;10238;49.556;10.956;2023-05-09T10:56:42;3.22;;;2.92;;
20154;SDS011;10238;49.556;10.956;2023-05-09T10:59:34;3.53;;;3.25;;
20154;SDS011;10238;49.556;10.956;2023-05-09T11:02:24;3.28;;;2.80;;
20154;SDS011;10238;49.556;10.956;2023-05-09T11:05:17;3.55;;;3.28;;
20154;SDS011;10238;49.556;10.956;2023-05-09T11:08:18;3.50;;;3.20;;
20154;SDS011;10238;49.556;10.956;2023-05-09T11:14:08;2.95;;;2.75;;
20154;SDS011;10238;49.556;10.956;2023-05-09T11:17:15;3.67;;;3.38;;
20154;SDS011;10238;49.556;10.956;2023-05-09T11:20:14;5.78;;;3.95;;
20154;SDS011;10238;49.556;10.956;2023-05-09T11:23:03;3.08;;;2.88;;
20154;SDS011;10238;49.556;10.956;2023-05-09T11:25:51;6.20;;;3.63;;
20154;SDS011;10238;49.556;10.956;2023-05-09T11:28:52;3.13;;;2.88;;
20154;SDS011;10238;49.556;10.956;2023-05-09T11:34:50;4.65;;;3.17;;
20154;SDS011;10238;49.556;10.956;2023-05-09T11:37:52;6.45;;;3.65;;
20154;SDS011;10238;49.556;10.956;2023-05-09T11:40:45;4.10;;;3.58;;
20154;SDS011;10238;49.556;10.956;2023-05-09T11:43:33;5.90;;;4.05;;
20154;SDS011;10238;49.556;10.956;2023-05-09T11:46:23;4.78;;;3.83;;
20154;SDS011;10238;49.556;10.956;2023-05-09T11:49:12;3.50;;;3.20;;
20154;SDS011;10238;49.556;10.956;2023-05-09T11:52:01;3.53;;;3.22;;
20154;SDS011;10238;49.556;10.956;2023-05-09T11:54:53;3.75;;;3.55;;
20154;SDS011;10238;49.556;10.956;2023-05-09T11:57:41;3.55;;;3.25;;
20154;SDS011;10238;49.556;10.956;2023-05-09T12:00:30;3.78;;;3.50;;
20154;SDS011;10238;49.556;10.956;2023-05-09T12:03:18;7.82;;;4.00;;
20154;SDS011;10238;49.556;10.956;2023-05-09T12:06:06;3.67;;;3.47;;
20154;SDS011;10238;49.556;10.956;2023-05-09T12:09:00;3.67;;;3.42;;
20154;SDS011;10238;49.556;10.956;2023-05-09T12:11:49;4.43;;;3.42;;
20154;SDS011;10238;49.556;10.956;2023-05-09T12:14:38;3.92;;;3.63;;
20154;SDS011;10238;49.556;10.956;2023-05-09T12:17:26;3.88;;;3.58;;
20154;SDS011;10238;49.556;10.956;2023-05-09T12:20:14;5.07;;;2.83;;
20154;SDS011;10238;49.556;10.956;2023-05-09T12:23:02;2.85;;;2.65;;
20154;SDS011;10238;49.556;10.956;2023-05-09T12:25:51;2.95;;;2.72;;
20154;SDS011;10238;49.556;10.956;2023-05-09T12:28:42;3.28;;;2.30;;
20154;SDS011;10238;49.556;10.956;2023-05-09T12:31:30;3.10;;;2.80;;
20154;SDS011;10238;49.556;10.956;2023-05-09T12:34:18;4.32;;;2.58;;
20154;SDS011;10238;49.556;10.956;2023-05-09T12:37:12;3.38;;;3.08;;
20154;SDS011;10238;49.556;10.956;2023-05-09T12:40:02;3.67;;;2.83;;
20154;SDS011;10238;49.556;10.956;2023-05-09T12:42:51;5.00;;;2.78;;
20154;SDS011;10238;49.556;10.956;2023-05-09T12:45:45;3.22;;;2.30;;
20154;SDS011;10238;49.556;10.956;2023-05-09T12:48:39;3.10;;;1.73;;
20154;SDS011;10238;49.556;10.956;2023-05-09T12:51:28;2.15;;;1.95;;
20154;SDS011;10238;49.556;10.956;2023-05-09T12:54:18;2.10;;;2.00;;
20154;SDS011;10238;49.556;10.956;2023-05-09T12:57:19;4.30;;;1.83;;
20154;SDS011;10238;49.556;10.956;2023-05-09T13:00:08;4.03;;;3.10;;
20154;SDS011;10238;49.556;10.956;2023-05-09T13:02:58;2.80;;;2.00;;
20154;SDS011;10238;49.556;10.956;2023-05-09T13:05:52;3.58;;;1.90;;
20154;SDS011;10238;49.556;10.956;2023-05-09T13:08:41;3.30;;;2.00;;
20154;SDS011;10238;49.556;10.956;2023-05-09T13:11:31;3.05;;;2.22;;
20154;SDS011;10238;49.556;10.956;2023-05-09T13:14:19;5.32;;;2.22;;
20154;SDS011;10238;49.556;10.956;2023-05-09T13:17:08;3.35;;;2.60;;
20154;SDS011;10238;49.556;10.956;2023-05-09T13:19:57;2.78;;;2.60;;
20154;SDS011;10238;49.556;10.956;2023-05-09T13:22:45;4.22;;;4.03;;
20154;SDS011;10238;49.556;10.956;2023-05-09T13:25:33;3.85;;;2.53;;
20154;SDS011;10238;49.556;10.956;2023-05-09T13:28:21;2.60;;;2.40;;
20154;SDS011;10238;49.556;10.956;2023-05-09T13:31:09;4.22;;;3.88;;
20154;SDS011;10238;49.556;10.956;2023-05-09T13:33:57;3.35;;;2.60;;
20154;SDS011;10238;49.556;10.956;2023-05-09T13:36:46;4.72;;;2.08;;
20154;SDS011;10238;49.556;10.956;2023-05-09T13:39:34;5.65;;;2.72;;
20154;SDS011;10238;49.556;10.956;2023-05-09T13:42:22;5.63;;;3.15;;
20154;SDS011;10238;49.556;10.956;2023-05-09T13:45:11;3.95;;;2.75;;
20154;SDS011;10238;49.556;10.956;2023-05-09T13:47:59;3.40;;;2.40;;
20154;SDS011;10238;49.556;10.956;2023-05-09T13:50:48;3.13;;;2.92;;
20154;SDS011;10238;49.556;10.956;2023-05-09T13:53:38;2.75;;;2.13;;
20154;SDS011;10238;49.556;10.956;2023-05-09T13:56:26;4.18;;;2.78;;
20154;SDS011;10238;49.556;10.956;2023-05-09T13:59:14;3.00;;;2.40;;
20154;SDS011;10238;49.556;10.956;2023-05-09T14:02:02;3.63;;;3.33;;
20154;SDS011;10238;49.556;10.956;2023-05-09T14:04:50;3.70;;;3.47;;
20154;SDS011;10238;49.556;10.956;2023-05-09T14:07:39;2.63;;;2.42;;
20154;SDS011;10238;49.556;10.956;2023-05-09T14:10:28;3.40;;;3.20;;
20154;SDS011;10238;49.556;10.956;2023-05-09T14:13:16;3.80;;;2.40;;
20154;SDS011;10238;49.556;10.956;2023-05-09T14:16:04;3.47;;;3.20;;
20154;SDS011;10238;49.556;10.956;2023-05-09T14:18:53;5.35;;;2.10;;
20154;SDS011;10238;49.556;10.956;2023-05-09T14:21:41;2.95;;;2.75;;
20154;SDS011;10238;49.556;10.956;2023-05-09T14:24:29;2.50;;;2.35;;
20154;SDS011;10238;49.556;10.956;2023-05-09T14:27:19;3.78;;;3.58;;
20154;SDS011;10238;49.556;10.956;2023-05-09T14:30:08;3.08;;;2.70;;
20154;SDS011;10238;49.556;10.956;2023-05-09T14:32:57;2.53;;;2.33;;
20154;SDS011;10238;49.556;10.956;2023-05-09T14:35:45;2.20;;;2.10;;
20154;SDS011;10238;49.556;10.956;2023-05-09T14:38:34;3.88;;;2.30;;
20154;SDS011;10238;49.556;10.956;2023-05-09T14:41:22;3.60;;;2.30;;
20154;SDS011;10238;49.556;10.956;2023-05-09T14:44:12;2.40;;;2.30;;
20154;SDS011;10238;49.556;10.956;2023-05-09T14:47:00;3.65;;;3.15;;
20154;SDS011;10238;49.556;10.956;2023-05-09T14:49:51;6.95;;;3.35;;
20154;SDS011;10238;49.556;10.956;2023-05-09T14:52:40;3.13;;;2.58;;
20154;SDS011;10238;49.556;10.956;2023-05-09T14:55:29;7.70;;;3.65;;
20154;SDS011;10238;49.556;10.956;2023-05-09T14:58:17;8.55;;;2.33;;
20154;SDS011;10238;49.556;10.956;2023-05-09T15:01:06;2.80;;;2.47;;
20154;SDS011;10238;49.556;10.956;2023-05-09T15:03:54;3.65;;;2.33;;
20154;SDS011;10238;49.556;10.956;2023-05-09T15:06:42;4.32;;;2.63;;
20154;SDS011;10238;49.556;10.956;2023-05-09T15:09:31;3.10;;;2.10;;
20154;SDS011;10238;49.556;10.956;2023-05-09T15:12:19;2.97;;;2.83;;
20154;SDS011;10238;49.556;10.956;2023-05-09T15:15:10;3.22;;;3.03;;
20154;SDS011;10238;49.556;10.956;2023-05-09T15:18:00;2.15;;;1.92;;
20154;SDS011;10238;49.556;10.956;2023-05-09T15:20:48;5.03;;;2.30;;
20154;SDS011;10238;49.556;10.956;2023-05-09T15:23:37;3.15;;;2.80;;
20154;SDS011;10238;49.556;10.956;2023-05-09T15:26:25;3.47;;;2.05;;
20154;SDS011;10238;49.556;10.956;2023-05-09T15:29:13;3.35;;;2.42;;
20154;SDS011;10238;49.556;10.956;2023-05-09T15:32:01;4.18;;;2.22;;
20154;SDS011;10238;49.556;10.956;2023-05-09T15:34:50;7.70;;;2.50;;
20154;SDS011;10238;49.556;10.956;2023-05-09T15:37:38;3.13;;;2.92;;
20154;SDS011;10238;49.556;10.956;2023-05-09T15:40:26;2.42;;;2.30;;
20154;SDS011;10238;49.556;10.956;2023-05-09T15:43:14;2.40;;;2.20;;
20154;SDS011;10238;49.556;10.956;2023-05-09T15:46:02;4.80;;;2.53;;
20154;SDS011;10238;49.556;10.956;2023-05-09T15:48:51;3.15;;;2.85;;
20154;SDS011;10238;49.556;10.956;2023-05-09T15:51:42;2.90;;;2.22;;
20154;SDS011;10238;49.556;10.956;2023-05-09T15:54:31;3.58;;;2.42;;
20154;SDS011;10238;49.556;10.956;2023-05-09T15:57:19;2.92;;;2.17;;
20154;SDS011;10238;49.556;10.956;2023-05-09T16:00:08;3.33;;;2.58;;
20154;SDS011;10238;49.556;10.956;2023-05-09T16:02:57;3.03;;;2.30;;
20154;SDS011;10238;49.556;10.956;2023-05-09T16:05:45;2.60;;;2.40;;
20154;SDS011;10238;49.556;10.956;2023-05-09T16:08:34;2.72;;;2.22;;
20154;SDS011;10238;49.556;10.956;2023-05-09T16:11:22;4.10;;;2.75;;
20154;SDS011;10238;49.556;10.956;2023-05-09T16:14:10;2.55;;;2.45;;
20154;SDS011;10238;49.556;10.956;2023-05-09T16:16:59;3.45;;;2.60;;
20154;SDS011;10238;49.556;10.956;2023-05-09T16:22:40;2.38;;;2.17;;
20154;SDS011;10238;49.556;10.956;2023-05-09T16:25:30;2.83;;;2.13;;
20154;SDS011;10238;49.556;10.956;2023-05-09T16:28:19;2.35;;;2.15;;
20154;SDS011;10238;49.556;10.956;2023-05-09T16:31:08;3.05;;;2.80;;
20154;SDS011;10238;49.556;10.956;2023-05-09T16:33:57;2.30;;;2.08;;
20154;SDS011;10238;49.556;10.956;2023-05-09T16:36:44;2.78;;;2.00;;
20154;SDS011;10238;49.556;10.956;2023-05-09T16:39:33;2.75;;;2.10;;
20154;SDS011;10238;49.556;10.956;2023-05-09T16:42:22;2.50;;;2.30;;
20154;SDS011;10238;49.556;10.956;2023-05-09T16:45:10;2.00;;;1.90;;
20154;SDS011;10238;49.556;10.956;2023-05-09T16:47:58;2.25;;;2.10;;
20154;SDS011;10238;49.556;10.956;2023-05-09T16:50:47;2.47;;;2.28;;
20154;SDS011;10238;49.556;10.956;2023-05-09T16:53:38;2.63;;;2.33;;
20154;SDS011;10238;49.556;10.956;2023-05-09T16:56:25;3.33;;;3.03;;